createdAt,value
2023-03-10T00:01:26.829Z,3.94
2023-03-10T00:03:57.189Z,3.99
2023-03-10T00:06:28.655Z,4.04
2023-03-10T00:08:57.455Z,3.99
2023-03-10T00:11:26.203Z,3.94
2023-03-10T00:13:54.718Z,3.92
2023-03-10T00:16:26.776Z,3.93
2023-03-10T00:18:55.907Z,4.00
2023-03-10T00:21:27.089Z,4.08
2023-03-10T00:23:55.866Z,4.05
2023-03-10T00:26:27.686Z,4.03
2023-03-10T00:28:56.299Z,4.01
2023-03-10T00:31:26.614Z,3.97
2023-03-10T00:33:56.285Z,4.02
2023-03-10T00:36:27.881Z,4.02
2023-03-10T00:38:57.497Z,3.96
2023-03-10T00:41:28.539Z,3.95
2023-03-10T00:43:57.647Z,3.90
2023-03-10T00:46:27.057Z,3.90
2023-03-10T00:48:56.008Z,3.96
2023-03-10T00:51:24.532Z,3.97
2023-03-10T00:53:53.345Z,3.94
2023-03-10T00:56:24.172Z,3.91
2023-03-10T00:58:54.929Z,3.81
2023-03-10T01:01:33.145Z,3.91
2023-03-10T01:04:05.376Z,3.90
2023-03-10T01:06:35.127Z,3.88
2023-03-10T01:09:04.837Z,3.86
2023-03-10T01:11:33.989Z,3.84
2023-03-10T01:14:05.332Z,3.86
2023-03-10T01:16:34.021Z,3.92
2023-03-10T01:19:02.889Z,3.87
2023-03-10T01:21:34.585Z,3.82
2023-03-10T01:24:03.676Z,3.80
2023-03-10T01:26:32.759Z,3.77
2023-03-10T01:29:03.246Z,3.82
2023-03-10T01:31:31.990Z,3.82
2023-03-10T01:34:00.978Z,3.79
2023-03-10T01:36:29.919Z,3.76
2023-03-10T01:38:58.699Z,3.78
2023-03-10T01:41:27.120Z,3.90
2023-03-10T01:44:05.299Z,3.87
2023-03-10T01:46:45.309Z,3.79
2023-03-10T01:49:28.398Z,3.73
2023-03-10T01:52:05.614Z,3.67
2023-03-10T01:55:02.497Z,3.78
2023-03-10T01:57:36.727Z,3.70
2023-03-10T02:00:13.382Z,3.71
2023-03-10T02:03:09.175Z,3.70
2023-03-10T02:05:42.005Z,3.76
2023-03-10T02:08:12.976Z,3.79
2023-03-10T02:10:42.084Z,3.81
2023-03-10T02:13:10.782Z,3.81
2023-03-10T02:15:41.338Z,3.82
2023-03-10T02:18:13.173Z,3.89
2023-03-10T02:20:59.607Z,3.87
2023-03-10T02:24:00.856Z,3.82
2023-03-10T02:27:02.807Z,3.74
2023-03-10T02:29:58.066Z,3.77
2023-03-10T02:32:32.066Z,3.80
2023-03-10T02:35:00.474Z,3.85
2023-03-10T02:37:32.378Z,3.86
2023-03-10T02:40:01.611Z,3.89
2023-03-10T02:42:37.054Z,3.97
2023-03-10T02:45:05.964Z,3.94
2023-03-10T02:47:34.367Z,3.93
2023-03-10T02:50:03.130Z,3.91
2023-03-10T02:52:55.953Z,4.02
2023-03-10T02:55:24.556Z,3.95
2023-03-10T02:57:52.856Z,3.98
2023-03-10T03:00:21.593Z,3.95
2023-03-10T03:02:49.817Z,3.99
2023-03-10T03:05:18.353Z,4.08
2023-03-10T03:07:46.875Z,4.07
2023-03-10T03:10:15.367Z,4.00
2023-03-10T03:12:44.238Z,4.01
2023-03-10T03:15:13.090Z,4.10
2023-03-10T03:17:41.576Z,4.13
2023-03-10T03:20:14.485Z,4.09
2023-03-10T03:22:44.675Z,4.04
2023-03-10T03:25:15.748Z,3.98
2023-03-10T03:27:44.482Z,4.03
2023-03-10T03:30:22.411Z,4.02
2023-03-10T03:32:51.204Z,3.93
2023-03-10T03:35:32.675Z,3.90
2023-03-10T03:38:01.927Z,3.92
2023-03-10T03:40:33.817Z,4.05
2023-03-10T03:43:02.782Z,4.05
2023-03-10T03:45:32.750Z,4.04
2023-03-10T03:48:01.334Z,4.03
2023-03-10T03:50:29.691Z,4.09
2023-03-10T03:52:58.265Z,4.08
2023-03-10T03:55:26.501Z,4.07
2023-03-10T03:57:55.039Z,4.08
2023-03-10T04:00:25.514Z,4.06
2023-03-10T04:02:56.966Z,4.14
2023-03-10T04:05:26.630Z,4.11
2023-03-10T04:07:55.219Z,4.06
2023-03-10T04:10:24.035Z,4.06
2023-03-10T04:12:52.561Z,4.13
2023-03-10T04:15:21.367Z,4.17
2023-03-10T04:17:49.855Z,4.13
2023-03-10T04:20:18.438Z,4.12
2023-03-10T04:22:46.964Z,4.14
2023-03-10T04:25:15.704Z,4.25
2023-03-10T04:27:43.992Z,4.25
2023-03-10T04:30:14.332Z,4.20
2023-03-10T04:32:42.774Z,4.17
2023-03-10T04:35:13.516Z,4.23
2023-03-10T04:37:42.460Z,4.29
2023-03-10T04:40:15.320Z,4.24
2023-03-10T04:42:43.962Z,4.17
2023-03-10T04:45:13.210Z,4.16
2023-03-10T04:47:41.636Z,4.20
2023-03-10T04:50:12.116Z,4.24
2023-03-10T04:52:40.522Z,4.19
2023-03-10T04:55:09.816Z,4.13
2023-03-10T04:57:38.212Z,4.16
2023-03-10T05:00:08.956Z,4.23
2023-03-10T05:02:37.876Z,4.16
2023-03-10T05:05:07.138Z,4.10
2023-03-10T05:07:35.974Z,4.09
2023-03-10T05:10:05.729Z,4.15
2023-03-10T05:12:34.340Z,4.18
2023-03-10T05:15:02.836Z,4.14
2023-03-10T05:17:31.434Z,4.13
2023-03-10T05:19:59.686Z,4.10
2023-03-10T05:22:27.811Z,4.19
2023-03-10T05:24:56.164Z,4.20
2023-03-10T05:27:24.843Z,4.17
2023-03-10T05:29:53.171Z,4.17
2023-03-10T05:32:21.670Z,4.26
2023-03-10T05:34:49.971Z,4.31
2023-03-10T05:37:18.613Z,4.24
2023-03-10T05:39:47.077Z,4.19
2023-03-10T05:42:15.870Z,4.19
2023-03-10T05:44:44.232Z,4.27
2023-03-10T05:47:14.538Z,4.32
2023-03-10T05:49:43.043Z,4.25
2023-03-10T05:52:11.993Z,4.25
2023-03-10T05:54:40.812Z,4.31
2023-03-10T05:57:09.446Z,4.38
2023-03-10T05:59:37.837Z,4.37
2023-03-10T06:02:06.528Z,4.39
2023-03-10T06:04:34.709Z,4.36
2023-03-10T06:07:03.183Z,4.44
2023-03-10T06:09:33.289Z,4.48
2023-03-10T06:12:01.588Z,4.42
2023-03-10T06:14:29.898Z,4.44
2023-03-10T06:16:58.258Z,4.48
2023-03-10T06:19:26.606Z,4.58
2023-03-10T06:21:54.756Z,4.57
2023-03-10T06:24:23.065Z,4.59
2023-03-10T06:26:51.165Z,4.61
2023-03-10T06:29:19.925Z,4.68
2023-03-10T06:31:48.451Z,4.67
2023-03-10T06:34:16.901Z,4.65
2023-03-10T06:36:45.613Z,4.61
2023-03-10T06:39:14.103Z,4.70
2023-03-10T06:41:42.380Z,4.79
2023-03-10T06:44:10.730Z,4.79
2023-03-10T06:46:40.111Z,4.79
2023-03-10T06:49:08.321Z,4.75
2023-03-10T06:51:36.442Z,4.86
2023-03-10T06:54:05.548Z,4.93
2023-03-10T06:56:33.704Z,4.91
2023-03-10T06:59:02.679Z,4.90
2023-03-10T07:01:33.542Z,4.93
2023-03-10T07:04:02.064Z,5.01
2023-03-10T07:06:30.960Z,5.02
2023-03-10T07:08:59.530Z,4.95
2023-03-10T07:11:28.106Z,4.88
2023-03-10T07:13:57.292Z,4.91
2023-03-10T07:16:25.815Z,4.92
2023-03-10T07:18:54.071Z,4.87
2023-03-10T07:21:22.567Z,4.81
2023-03-10T07:23:50.893Z,4.80
2023-03-10T07:26:19.476Z,4.92
2023-03-10T07:28:48.054Z,4.89
2023-03-10T07:31:17.497Z,4.86
2023-03-10T07:33:46.205Z,4.85
2023-03-10T07:36:17.762Z,4.96
2023-03-10T07:38:46.433Z,4.97
2023-03-10T07:41:20.786Z,4.91
2023-03-10T07:43:53.275Z,4.86
2023-03-10T07:46:22.489Z,4.89
2023-03-10T07:48:53.198Z,4.87
2023-03-10T07:51:21.802Z,4.87
2023-03-10T07:53:50.629Z,4.85
2023-03-10T07:56:19.990Z,4.89
2023-03-10T07:58:48.751Z,4.94
2023-03-10T08:01:23.238Z,4.89
2023-03-10T08:03:51.905Z,4.81
2023-03-10T08:06:23.894Z,4.89
2023-03-10T08:08:53.059Z,4.98
2023-03-10T08:11:22.036Z,4.98
2023-03-10T08:13:51.263Z,4.95
2023-03-10T08:16:21.616Z,4.91
2023-03-10T08:18:52.591Z,4.96
2023-03-10T08:21:21.175Z,5.05
2023-03-10T08:23:49.543Z,5.06
2023-03-10T08:26:19.262Z,5.12
2023-03-10T08:28:49.615Z,5.19
2023-03-10T08:31:20.197Z,5.27
2023-03-10T08:33:49.500Z,5.29
2023-03-10T08:36:20.936Z,5.29
2023-03-10T08:38:51.566Z,5.26
2023-03-10T08:41:23.422Z,5.30
2023-03-10T08:43:53.254Z,5.33
2023-03-10T08:46:24.964Z,5.32
2023-03-10T08:48:54.344Z,5.32
2023-03-10T08:51:23.894Z,5.35
2023-03-10T08:53:53.096Z,5.46
2023-03-10T08:56:22.870Z,5.48
2023-03-10T08:58:54.540Z,5.48
2023-03-10T09:01:23.002Z,5.48
2023-03-10T09:03:51.606Z,5.52
2023-03-10T09:06:20.550Z,5.56
2023-03-10T09:08:50.885Z,5.58
2023-03-10T09:11:24.012Z,5.56
2023-03-10T09:13:53.270Z,5.55
2023-03-10T09:16:22.333Z,5.64
2023-03-10T09:18:50.632Z,5.62
2023-03-10T09:21:20.075Z,5.56
2023-03-10T09:23:50.409Z,5.55
2023-03-10T09:26:20.093Z,5.67
2023-03-10T09:28:50.306Z,5.77
2023-03-10T09:31:39.795Z,5.71
2023-03-10T09:34:08.634Z,5.59
2023-03-10T09:36:36.971Z,5.69
2023-03-10T09:39:05.657Z,5.82
2023-03-10T09:41:38.351Z,5.77
2023-03-10T09:44:15.509Z,5.75
2023-03-10T09:46:52.677Z,5.70
2023-03-10T09:49:52.015Z,5.81
2023-03-10T09:52:28.971Z,5.79
2023-03-10T09:55:18.578Z,5.80
2023-03-10T09:57:50.653Z,5.74
2023-03-10T10:00:35.864Z,5.83
2023-03-10T10:03:20.958Z,5.85
2023-03-10T10:05:53.577Z,5.87
2023-03-10T10:09:03.447Z,5.85
2023-03-10T10:11:33.528Z,5.68
2023-03-10T10:14:31.083Z,5.81
2023-03-10T10:17:47.272Z,5.81
2023-03-10T10:20:43.728Z,5.72
2023-03-10T10:23:38.878Z,5.80
2023-03-10T10:26:26.582Z,5.87
2023-03-10T10:28:57.724Z,5.99
2023-03-10T10:31:28.883Z,6.11
2023-03-10T10:34:06.426Z,6.19
2023-03-10T10:36:37.494Z,6.25
2023-03-10T10:39:28.217Z,6.37
2023-03-10T10:42:20.553Z,6.37
2023-03-10T10:44:56.077Z,6.32
2023-03-10T10:47:50.772Z,6.31
2023-03-10T10:50:25.003Z,6.38
2023-03-10T10:53:24.557Z,6.55
2023-03-10T10:56:13.127Z,6.54
2023-03-10T10:58:44.290Z,6.53
2023-03-10T11:01:15.309Z,6.59
2023-03-10T11:03:46.440Z,6.66
2023-03-10T11:06:21.596Z,6.62
2023-03-10T11:08:53.524Z,6.55
2023-03-10T11:11:39.151Z,6.48
2023-03-10T11:14:31.829Z,6.46
2023-03-10T11:17:00.288Z,6.48
2023-03-10T11:19:56.166Z,6.52
2023-03-10T11:22:53.245Z,6.42
2023-03-10T11:25:37.090Z,6.43
2023-03-10T11:28:15.163Z,6.48
2023-03-10T11:31:02.135Z,6.47
2023-03-10T11:33:48.786Z,6.42
2023-03-10T11:36:35.073Z,6.42
2023-03-10T11:39:16.003Z,6.50
2023-03-10T11:41:50.224Z,6.58
2023-03-10T11:44:34.076Z,6.56
2023-03-10T11:47:17.753Z,6.56
2023-03-10T11:49:53.791Z,6.62
2023-03-10T11:52:25.355Z,6.73
2023-03-10T11:55:06.273Z,6.74
2023-03-10T11:57:46.166Z,6.67
2023-03-10T12:00:49.993Z,6.65
2023-03-10T12:03:36.783Z,6.65
2023-03-10T12:06:13.212Z,6.69
2023-03-10T12:08:42.391Z,6.64
2023-03-10T12:11:17.360Z,6.65
2023-03-10T12:13:51.647Z,6.63
2023-03-10T12:16:24.894Z,6.73
2023-03-10T12:18:54.087Z,6.73
2023-03-10T12:21:28.509Z,6.71
2023-03-10T12:24:02.883Z,6.67
2023-03-10T12:26:40.243Z,6.75
2023-03-10T12:29:20.909Z,6.83
2023-03-10T12:31:51.068Z,6.82
2023-03-10T12:34:32.519Z,6.83
2023-03-10T12:37:07.451Z,6.86
2023-03-10T12:39:41.336Z,6.93
2023-03-10T12:42:30.639Z,6.94
2023-03-10T12:45:12.619Z,6.85
2023-03-10T12:47:59.994Z,6.81
2023-03-10T12:50:42.196Z,6.79
2023-03-10T12:53:26.378Z,6.87
2023-03-10T12:56:42.431Z,6.87
2023-03-10T12:59:29.480Z,6.81
2023-03-10T13:01:59.869Z,6.81
2023-03-10T13:04:28.365Z,6.94
2023-03-10T13:07:03.813Z,6.96
2023-03-10T13:09:42.697Z,6.92
2023-03-10T13:12:36.879Z,6.89
2023-03-10T13:15:08.767Z,6.95
2023-03-10T13:17:37.282Z,6.98
2023-03-10T13:20:15.495Z,6.97
2023-03-10T13:22:57.466Z,6.92
2023-03-10T13:25:26.303Z,6.93
2023-03-10T13:27:57.739Z,7.00
2023-03-10T13:30:28.225Z,6.97
2023-03-10T13:33:02.764Z,6.92
2023-03-10T13:35:31.398Z,6.93
2023-03-10T13:38:13.124Z,7.02
2023-03-10T13:40:47.459Z,6.98
2023-03-10T13:43:38.723Z,6.91
2023-03-10T13:46:15.898Z,6.80
2023-03-10T13:48:47.372Z,6.90
2023-03-10T13:51:26.818Z,6.94
2023-03-10T13:53:58.822Z,6.87
2023-03-10T13:56:36.136Z,6.80
2023-03-10T13:59:07.314Z,6.80
2023-03-10T14:01:39.729Z,6.88
2023-03-10T14:04:11.475Z,6.91
2023-03-10T14:06:43.293Z,6.89
2023-03-10T14:09:22.365Z,6.87
2023-03-10T14:11:51.940Z,6.92
2023-03-10T14:14:36.083Z,6.99
2023-03-10T14:17:35.434Z,6.89
2023-03-10T14:20:05.424Z,6.83
2023-03-10T14:22:41.554Z,6.94
2023-03-10T14:25:21.666Z,6.99
2023-03-10T14:28:00.575Z,7.03
2023-03-10T14:30:33.504Z,7.05
2023-03-10T14:33:02.156Z,7.09
2023-03-10T14:35:30.548Z,7.19
2023-03-10T14:37:58.966Z,7.25
2023-03-10T14:40:27.807Z,7.21
2023-03-10T14:43:01.361Z,7.18
2023-03-10T14:45:36.074Z,7.19
2023-03-10T14:48:15.496Z,7.21
2023-03-10T14:50:44.579Z,7.16
2023-03-10T14:53:16.128Z,7.13
2023-03-10T14:55:49.062Z,7.10
2023-03-10T14:58:27.122Z,7.15
2023-03-10T15:00:55.791Z,7.05
2023-03-10T15:03:24.238Z,7.02
2023-03-10T15:05:54.173Z,6.97
2023-03-10T15:08:22.836Z,7.04
2023-03-10T15:10:52.509Z,7.08
2023-03-10T15:13:24.098Z,7.02
2023-03-10T15:15:53.410Z,6.97
2023-03-10T15:18:23.861Z,6.92
2023-03-10T15:20:52.275Z,6.99
2023-03-10T15:23:23.643Z,6.94
2023-03-10T15:25:52.315Z,6.90
2023-03-10T15:28:20.653Z,6.93
2023-03-10T15:30:49.954Z,6.97
2023-03-10T15:33:18.794Z,6.93
2023-03-10T15:35:47.147Z,6.87
2023-03-10T15:38:16.171Z,6.79
2023-03-10T15:40:44.582Z,6.82
2023-03-10T15:43:14.259Z,6.87
2023-03-10T15:45:47.022Z,6.85
2023-03-10T15:48:15.526Z,6.82
2023-03-10T15:50:47.213Z,6.88
2023-03-10T15:53:15.699Z,6.94
2023-03-10T15:55:43.861Z,6.92
2023-03-10T15:58:12.880Z,6.90
2023-03-10T16:00:44.057Z,6.88
2023-03-10T16:03:18.033Z,6.95
2023-03-10T16:05:51.153Z,6.93
2023-03-10T16:08:19.558Z,6.85
2023-03-10T16:10:53.436Z,6.86
2023-03-10T16:13:22.712Z,6.86
2023-03-10T16:15:52.995Z,6.95
2023-03-10T16:18:21.640Z,6.95
2023-03-10T16:21:00.728Z,6.91
2023-03-10T16:23:33.421Z,6.85
2023-03-10T16:26:15.750Z,6.89
2023-03-10T16:29:40.465Z,6.88
2023-03-10T16:32:09.502Z,6.64
2023-03-10T16:34:38.301Z,6.69
2023-03-10T16:37:08.379Z,6.69
2023-03-10T16:39:37.105Z,6.74
2023-03-10T16:42:05.505Z,6.75
2023-03-10T16:44:33.823Z,6.71
2023-03-10T16:47:03.192Z,6.65
2023-03-10T16:49:33.012Z,6.70
2023-03-10T16:52:03.462Z,6.74
2023-03-10T16:54:31.824Z,6.72
2023-03-10T16:57:01.764Z,6.70
2023-03-10T16:59:30.630Z,6.72
2023-03-10T17:02:01.620Z,6.77
2023-03-10T17:04:30.418Z,6.80
2023-03-10T17:06:59.223Z,6.78
2023-03-10T17:09:28.547Z,6.75
2023-03-10T17:11:56.549Z,6.81
2023-03-10T17:14:25.059Z,6.84
2023-03-10T17:16:56.272Z,6.80
2023-03-10T17:19:29.139Z,6.75
2023-03-10T17:21:58.493Z,6.69
2023-03-10T17:24:27.499Z,6.77
2023-03-10T17:26:56.225Z,6.77
2023-03-10T17:29:24.478Z,6.73
2023-03-10T17:31:52.909Z,6.72
2023-03-10T17:34:21.499Z,6.75
2023-03-10T17:36:51.224Z,6.76
2023-03-10T17:39:22.092Z,6.71
2023-03-10T17:41:55.661Z,6.68
2023-03-10T17:44:24.715Z,6.71
2023-03-10T17:46:53.359Z,6.81
2023-03-10T17:49:22.156Z,6.82
2023-03-10T17:51:53.008Z,6.75
2023-03-10T17:54:22.607Z,6.71
2023-03-10T17:56:51.232Z,6.78
2023-03-10T17:59:19.657Z,6.80
2023-03-10T18:01:49.555Z,6.77
2023-03-10T18:04:18.239Z,6.72
2023-03-10T18:06:47.366Z,6.72
2023-03-10T18:09:16.669Z,6.76
2023-03-10T18:11:45.524Z,6.71
2023-03-10T18:14:17.522Z,6.63
2023-03-10T18:16:46.216Z,6.65
2023-03-10T18:19:17.783Z,6.73
2023-03-10T18:21:49.916Z,6.69
2023-03-10T18:24:18.180Z,6.66
2023-03-10T18:26:46.295Z,6.63
2023-03-10T18:29:15.118Z,6.69
2023-03-10T18:31:43.798Z,6.67
2023-03-10T18:34:13.881Z,6.63
2023-03-10T18:36:42.332Z,6.61
2023-03-10T18:39:11.779Z,6.65
2023-03-10T18:41:41.358Z,6.67
2023-03-10T18:44:12.953Z,6.67
2023-03-10T18:46:41.831Z,6.62
2023-03-10T18:49:13.412Z,6.57
2023-03-10T18:51:41.949Z,6.61
2023-03-10T18:54:10.758Z,6.63
2023-03-10T18:56:39.660Z,6.57
2023-03-10T18:59:08.183Z,6.48
2023-03-10T19:01:36.599Z,6.48
2023-03-10T19:04:05.582Z,6.51
2023-03-10T19:06:34.870Z,6.48
2023-03-10T19:09:04.361Z,6.37
2023-03-10T19:11:39.449Z,6.35
2023-03-10T19:14:07.980Z,6.38
2023-03-10T19:16:43.248Z,6.42
2023-03-10T19:19:11.882Z,6.36
2023-03-10T19:21:40.390Z,6.35
2023-03-10T19:24:08.890Z,6.34
2023-03-10T19:26:37.564Z,6.41
2023-03-10T19:29:06.212Z,6.39
2023-03-10T19:31:34.743Z,6.30
2023-03-10T19:34:03.730Z,6.26
2023-03-10T19:36:32.079Z,6.31
2023-03-10T19:39:02.628Z,6.39
2023-03-10T19:41:31.420Z,6.37
2023-03-10T19:44:00.246Z,6.36
2023-03-10T19:46:29.977Z,6.31
2023-03-10T19:48:58.412Z,6.36
2023-03-10T19:51:29.418Z,6.39
2023-03-10T19:53:58.301Z,6.36
2023-03-10T19:56:27.019Z,6.34
2023-03-10T19:58:55.993Z,6.36
2023-03-10T20:01:26.769Z,6.44
2023-03-10T20:03:58.746Z,6.39
2023-03-10T20:06:27.778Z,6.34
2023-03-10T20:08:57.605Z,6.32
2023-03-10T20:11:29.442Z,6.36
2023-03-10T20:13:57.814Z,6.36
2023-03-10T20:16:28.051Z,6.33
2023-03-10T20:18:56.740Z,6.31
2023-03-10T20:21:26.500Z,6.34
2023-03-10T20:23:56.326Z,6.45
2023-03-10T20:26:25.109Z,6.44
2023-03-10T20:28:53.694Z,6.42
2023-03-10T20:31:24.740Z,6.39
2023-03-10T20:33:53.499Z,6.44
2023-03-10T20:36:23.010Z,6.45
2023-03-10T20:38:51.753Z,6.38
2023-03-10T20:41:20.841Z,6.33
2023-03-10T20:43:50.025Z,6.34
2023-03-10T20:46:19.708Z,6.37
2023-03-10T20:48:51.128Z,6.27
2023-03-10T20:51:22.817Z,6.16
2023-03-10T20:53:52.274Z,6.15
2023-03-10T20:56:20.563Z,6.22
2023-03-10T20:58:49.037Z,6.24
2023-03-10T21:01:20.652Z,6.19
2023-03-10T21:03:49.265Z,6.15
2023-03-10T21:06:18.270Z,6.14
2023-03-10T21:08:48.081Z,6.09
2023-03-10T21:11:17.881Z,5.99
2023-03-10T21:13:49.244Z,5.92
2023-03-10T21:16:20.928Z,5.97
2023-03-10T21:18:49.526Z,6.05
2023-03-10T21:21:21.093Z,6.04
2023-03-10T21:23:49.523Z,5.99
2023-03-10T21:26:22.130Z,5.96
2023-03-10T21:28:52.244Z,5.95
2023-03-10T21:31:20.907Z,5.92
2023-03-10T21:33:50.551Z,5.84
2023-03-10T21:36:22.046Z,5.84
2023-03-10T21:38:51.404Z,5.85
2023-03-10T21:41:28.621Z,5.92
2023-03-10T21:43:59.412Z,5.89
2023-03-10T21:46:27.810Z,5.84
2023-03-10T21:48:56.348Z,5.84
2023-03-10T21:51:27.034Z,5.85
2023-03-10T21:53:55.716Z,5.88
2023-03-10T21:56:26.168Z,5.95
2023-03-10T21:58:55.563Z,5.97
2023-03-10T22:01:26.238Z,5.98
2023-03-10T22:03:54.780Z,6.02
2023-03-10T22:06:23.155Z,6.07
2023-03-10T22:08:51.648Z,6.06
2023-03-10T22:11:20.737Z,6.05
2023-03-10T22:13:49.933Z,6.06
2023-03-10T22:16:19.738Z,6.12
2023-03-10T22:18:49.843Z,6.14
2023-03-10T22:21:19.815Z,6.07
2023-03-10T22:23:48.811Z,6.04
2023-03-10T22:26:17.092Z,6.08
2023-03-10T22:28:45.457Z,6.09
2023-03-10T22:31:13.958Z,6.07
2023-03-10T22:33:42.445Z,6.00
2023-03-10T22:36:13.494Z,5.97
2023-03-10T22:38:43.200Z,6.01
2023-03-10T22:41:13.203Z,6.00
2023-03-10T22:43:41.856Z,5.90
2023-03-10T22:46:15.635Z,5.79
2023-03-10T22:48:44.987Z,5.83
2023-03-10T22:51:16.996Z,5.89
2023-03-10T22:53:49.328Z,5.86
2023-03-10T22:56:21.490Z,5.83
2023-03-10T22:58:49.669Z,5.83
2023-03-10T23:01:18.221Z,5.89
2023-03-10T23:03:46.627Z,5.93
2023-03-10T23:06:14.955Z,5.93
2023-03-10T23:08:44.261Z,5.92
2023-03-10T23:11:15.678Z,5.92
2023-03-10T23:13:44.060Z,5.95
2023-03-10T23:16:12.655Z,5.98
2023-03-10T23:18:40.975Z,5.95
2023-03-10T23:21:10.096Z,5.95
2023-03-10T23:23:39.624Z,6.02
2023-03-10T23:26:08.199Z,6.07
2023-03-10T23:28:36.734Z,6.04
2023-03-10T23:31:07.940Z,6.05
2023-03-10T23:33:36.302Z,6.03
2023-03-10T23:36:05.117Z,6.11
2023-03-10T23:38:36.192Z,6.15
2023-03-10T23:41:06.213Z,6.09
2023-03-10T23:43:38.465Z,6.07
2023-03-10T23:46:08.334Z,6.09
2023-03-10T23:48:37.005Z,6.16
2023-03-10T23:51:05.520Z,6.18
2023-03-10T23:53:34.048Z,6.14
2023-03-10T23:56:02.574Z,6.09
2023-03-10T23:58:30.939Z,6.12
